createdAt,value
2024-02-03T00:00:56.733Z,8.70
2024-02-03T00:03:24.201Z,8.60
2024-02-03T00:05:52.852Z,8.60
2024-02-03T00:08:20.142Z,8.70
2024-02-03T00:10:47.401Z,8.60
2024-02-03T00:13:14.829Z,8.60
2024-02-03T00:15:42.266Z,8.50
2024-02-03T00:18:09.745Z,8.50
2024-02-03T00:20:37.085Z,8.50
2024-02-03T00:23:04.320Z,8.50
2024-02-03T00:25:31.539Z,8.40
2024-02-03T00:27:59.156Z,8.50
2024-02-03T00:30:26.338Z,8.50
2024-02-03T00:32:53.725Z,8.50
2024-02-03T00:35:21.189Z,8.50
2024-02-03T00:37:48.450Z,8.60
2024-02-03T00:40:15.687Z,8.50
2024-02-03T00:42:44.526Z,8.50
2024-02-03T00:45:11.804Z,8.50
2024-02-03T00:47:39.143Z,8.50
2024-02-03T00:50:07.351Z,8.50
2024-02-03T00:52:34.574Z,8.50
2024-02-03T00:55:01.693Z,8.50
2024-02-03T00:57:28.989Z,8.50
2024-02-03T00:59:56.225Z,8.50
2024-02-03T01:02:23.555Z,8.50
2024-02-03T01:04:51.002Z,8.50
2024-02-03T01:07:18.378Z,8.40
2024-02-03T01:09:46.028Z,8.40
2024-02-03T01:12:13.671Z,8.40
2024-02-03T01:14:40.933Z,8.30
2024-02-03T01:17:08.225Z,8.20
2024-02-03T01:19:35.563Z,8.20
2024-02-03T01:22:03.097Z,8.20
2024-02-03T01:24:30.361Z,8.10
2024-02-03T01:26:57.636Z,8.10
2024-02-03T01:29:26.419Z,8.10
2024-02-03T01:31:55.427Z,8.20
2024-02-03T01:34:22.824Z,8.10
2024-02-03T01:36:50.287Z,8.00
2024-02-03T01:39:17.551Z,7.90
2024-02-03T01:41:45.005Z,7.90
2024-02-03T01:44:12.672Z,7.90
2024-02-03T01:46:40.702Z,7.90
2024-02-03T01:49:08.747Z,8.00
2024-02-03T01:51:36.744Z,8.00
2024-02-03T01:54:04.347Z,7.90
2024-02-03T01:56:37.134Z,7.80
2024-02-03T01:59:05.040Z,7.70
2024-02-03T02:01:32.718Z,7.70
2024-02-03T02:04:00.857Z,7.70
2024-02-03T02:06:31.153Z,7.80
2024-02-03T02:08:58.895Z,7.80
2024-02-03T02:11:27.083Z,7.80
2024-02-03T02:13:54.566Z,7.80
2024-02-03T02:16:21.843Z,7.70
2024-02-03T02:18:49.313Z,7.60
2024-02-03T02:21:17.068Z,7.60
2024-02-03T02:23:44.406Z,7.70
2024-02-03T02:26:11.663Z,7.70
2024-02-03T02:28:39.908Z,7.80
2024-02-03T02:31:07.247Z,7.80
2024-02-03T02:33:34.679Z,7.80
2024-02-03T02:36:01.947Z,7.80
2024-02-03T02:38:30.063Z,7.80
2024-02-03T02:40:57.269Z,7.80
2024-02-03T02:43:24.786Z,7.80
2024-02-03T02:45:52.147Z,7.80
2024-02-03T02:48:19.689Z,7.80
2024-02-03T02:50:47.306Z,7.80
2024-02-03T02:53:14.816Z,7.80
2024-02-03T02:55:42.070Z,7.80
2024-02-03T02:58:09.364Z,7.80
2024-02-03T03:00:36.769Z,7.80
2024-02-03T03:03:04.513Z,7.70
2024-02-03T03:05:31.699Z,7.60
2024-02-03T03:07:59.031Z,7.60
2024-02-03T03:10:26.293Z,7.60
2024-02-03T03:12:53.567Z,7.60
2024-02-03T03:15:21.002Z,7.40
2024-02-03T03:17:48.239Z,7.10
2024-02-03T03:20:16.026Z,6.90
2024-02-03T03:22:43.202Z,6.80
2024-02-03T03:25:10.401Z,6.80
2024-02-03T03:27:38.886Z,6.90
2024-02-03T03:30:06.954Z,6.90
2024-02-03T03:32:34.272Z,7.00
2024-02-03T03:35:01.667Z,7.10
2024-02-03T03:37:28.764Z,7.20
2024-02-03T03:39:56.870Z,7.20
2024-02-03T03:42:24.220Z,7.20
2024-02-03T03:44:51.518Z,7.20
2024-02-03T03:47:19.014Z,7.10
2024-02-03T03:49:46.730Z,7.00
2024-02-03T03:52:13.998Z,6.90
2024-02-03T03:54:42.170Z,6.90
2024-02-03T03:57:10.203Z,6.90
2024-02-03T03:59:38.440Z,6.80
2024-02-03T04:02:05.636Z,6.70
2024-02-03T04:04:32.968Z,6.70
2024-02-03T04:07:00.226Z,6.70
2024-02-03T04:09:27.481Z,6.70
2024-02-03T04:11:54.846Z,6.70
2024-02-03T04:14:22.060Z,6.60
2024-02-03T04:16:49.238Z,6.60
2024-02-03T04:19:16.657Z,6.50
2024-02-03T04:21:43.938Z,6.40
2024-02-03T04:24:11.278Z,6.40
2024-02-03T04:26:38.964Z,6.30
2024-02-03T04:29:06.121Z,6.30
2024-02-03T04:31:33.515Z,6.20
2024-02-03T04:34:01.182Z,6.20
2024-02-03T04:36:28.870Z,6.10
2024-02-03T04:38:56.014Z,6.10
2024-02-03T04:41:25.024Z,6.10
2024-02-03T04:43:52.514Z,6.00
2024-02-03T04:46:19.958Z,6.10
2024-02-03T04:48:47.984Z,6.20
2024-02-03T04:51:16.057Z,6.30
2024-02-03T04:53:43.742Z,6.30
2024-02-03T04:56:11.441Z,6.20
2024-02-03T04:58:39.044Z,6.20
2024-02-03T05:01:06.666Z,6.40
2024-02-03T05:03:34.475Z,6.40
2024-02-03T05:06:03.614Z,6.60
2024-02-03T05:08:31.835Z,6.60
2024-02-03T05:11:00.147Z,6.60
2024-02-03T05:13:27.589Z,6.50
2024-02-03T05:15:55.078Z,6.50
2024-02-03T05:18:23.528Z,6.40
2024-02-03T05:20:51.144Z,6.40
2024-02-03T05:23:18.437Z,6.50
2024-02-03T05:25:46.415Z,6.50
2024-02-03T05:28:13.668Z,6.50
2024-02-03T05:30:40.910Z,6.60
2024-02-03T05:33:08.339Z,6.70
2024-02-03T05:35:35.722Z,6.70
2024-02-03T05:38:02.808Z,6.80
2024-02-03T05:40:30.168Z,6.80
2024-02-03T05:42:57.453Z,6.90
2024-02-03T05:45:24.756Z,7.00
2024-02-03T05:47:52.165Z,7.00
2024-02-03T05:50:19.535Z,7.10
2024-02-03T05:52:46.805Z,7.20
2024-02-03T05:55:14.439Z,7.30
2024-02-03T05:57:44.701Z,7.30
2024-02-03T06:00:12.336Z,7.30
2024-02-03T06:02:39.462Z,7.30
2024-02-03T06:05:07.397Z,7.40
2024-02-03T06:07:34.549Z,7.30
2024-02-03T06:10:01.951Z,7.30
2024-02-03T06:12:29.552Z,7.30
2024-02-03T06:14:56.763Z,7.20
2024-02-03T06:17:23.933Z,7.20
2024-02-03T06:19:52.234Z,7.30
2024-02-03T06:22:19.392Z,7.30
2024-02-03T06:24:46.632Z,7.40
2024-02-03T06:27:14.009Z,7.40
2024-02-03T06:29:41.342Z,7.50
2024-02-03T06:32:09.192Z,7.50
2024-02-03T06:34:36.683Z,7.50
2024-02-03T06:37:04.982Z,7.50
2024-02-03T06:39:32.390Z,7.50
2024-02-03T06:41:59.750Z,7.60
2024-02-03T06:44:26.850Z,7.60
2024-02-03T06:46:54.075Z,7.50
2024-02-03T06:49:21.322Z,7.50
2024-02-03T06:51:48.638Z,7.50
2024-02-03T06:54:15.885Z,7.50
2024-02-03T06:56:43.138Z,7.60
2024-02-03T06:59:10.225Z,7.50
2024-02-03T07:01:37.409Z,7.60
2024-02-03T07:04:05.527Z,7.60
2024-02-03T07:06:33.113Z,7.60
2024-02-03T07:09:00.298Z,7.60
2024-02-03T07:11:29.520Z,7.60
2024-02-03T07:13:56.601Z,7.60
2024-02-03T07:16:23.822Z,7.60
2024-02-03T07:18:51.042Z,7.60
2024-02-03T07:21:18.379Z,7.60
2024-02-03T07:23:45.483Z,7.70
2024-02-03T07:26:12.855Z,7.80
2024-02-03T07:28:40.164Z,7.70
2024-02-03T07:31:07.454Z,7.80
2024-02-03T07:33:34.876Z,7.70
2024-02-03T07:36:02.204Z,7.70
2024-02-03T07:38:29.403Z,7.70
2024-02-03T07:40:56.844Z,7.80
2024-02-03T07:43:24.011Z,7.80
2024-02-03T07:45:51.458Z,7.80
2024-02-03T07:48:18.921Z,7.70
2024-02-03T07:50:46.317Z,7.70
2024-02-03T07:53:13.445Z,7.70
2024-02-03T07:55:40.853Z,7.70
2024-02-03T07:58:08.158Z,7.60
2024-02-03T08:00:35.591Z,7.70
2024-02-03T08:03:02.994Z,7.70
2024-02-03T08:05:30.376Z,7.60
2024-02-03T08:07:57.482Z,7.60
2024-02-03T08:10:24.736Z,7.60
2024-02-03T08:12:52.185Z,7.70
2024-02-03T08:15:19.863Z,7.70
2024-02-03T08:17:47.438Z,7.70
2024-02-03T08:20:15.415Z,7.70
2024-02-03T08:22:42.691Z,7.70
2024-02-03T08:25:10.190Z,7.70
2024-02-03T08:27:37.427Z,7.60
2024-02-03T08:30:05.175Z,7.60
2024-02-03T08:32:32.344Z,7.60
2024-02-03T08:37:29.653Z,7.70
2024-02-03T08:39:57.057Z,7.70
2024-02-03T08:42:24.229Z,7.70
2024-02-03T08:44:51.470Z,7.60
2024-02-03T08:47:18.816Z,7.60
2024-02-03T08:49:49.058Z,7.60
2024-02-03T08:52:16.122Z,7.60
2024-02-03T08:54:43.427Z,7.60
2024-02-03T08:57:10.623Z,7.50
2024-02-03T08:59:37.936Z,7.50
2024-02-03T09:02:05.418Z,7.50
2024-02-03T09:04:32.785Z,7.60
2024-02-03T09:07:00.165Z,7.50
2024-02-03T09:09:27.580Z,7.60
2024-02-03T09:11:54.697Z,7.60
2024-02-03T09:14:21.863Z,7.60
2024-02-03T09:16:49.000Z,7.70
2024-02-03T09:19:16.569Z,7.70
2024-02-03T09:21:43.911Z,7.70
2024-02-03T09:24:11.360Z,7.70
2024-02-03T09:26:40.561Z,7.80
2024-02-03T09:29:08.593Z,7.80
2024-02-03T09:31:36.112Z,7.80
2024-02-03T09:34:06.166Z,7.90
2024-02-03T09:36:33.964Z,8.00
2024-02-03T09:39:01.988Z,8.00
2024-02-03T09:41:30.319Z,8.00
2024-02-03T09:43:59.346Z,8.00
2024-02-03T09:46:26.813Z,8.00
2024-02-03T09:48:54.180Z,8.00
2024-02-03T09:51:21.753Z,8.00
2024-02-03T09:53:49.154Z,8.00
2024-02-03T09:56:16.621Z,8.00
2024-02-03T09:58:45.242Z,8.00
2024-02-03T10:01:13.569Z,8.00
2024-02-03T10:03:43.328Z,8.00
2024-02-03T10:06:11.490Z,8.00
2024-02-03T10:08:39.097Z,8.10
2024-02-03T10:11:06.827Z,8.10
2024-02-03T10:13:34.443Z,8.10
2024-02-03T10:16:03.701Z,8.10
2024-02-03T10:18:33.434Z,8.10
2024-02-03T10:21:02.114Z,8.10
2024-02-03T10:23:29.649Z,8.10
2024-02-03T10:25:58.531Z,8.20
2024-02-03T10:28:25.963Z,8.20
2024-02-03T10:30:59.684Z,8.20
2024-02-03T10:33:29.048Z,8.20
2024-02-03T10:35:58.253Z,8.20
2024-02-03T10:38:25.657Z,8.20
2024-02-03T10:40:53.444Z,8.30
2024-02-03T10:43:22.252Z,8.30
2024-02-03T10:45:54.989Z,8.30
2024-02-03T10:48:27.240Z,8.40
2024-02-03T10:50:58.855Z,8.40
2024-02-03T10:53:32.000Z,8.40
2024-02-03T10:56:04.847Z,8.50
2024-02-03T10:58:33.134Z,8.50
2024-02-03T11:01:12.869Z,8.50
2024-02-03T11:03:40.950Z,8.50
2024-02-03T11:06:09.489Z,8.60
2024-02-03T11:08:36.997Z,8.60
2024-02-03T11:11:04.342Z,8.60
2024-02-03T11:13:38.984Z,8.60
2024-02-03T11:16:06.825Z,8.70
2024-02-03T11:18:37.202Z,8.80
2024-02-03T11:21:06.583Z,8.80
2024-02-03T11:23:34.424Z,8.90
2024-02-03T11:26:01.893Z,8.90
2024-02-03T11:28:31.774Z,8.90
2024-02-03T11:31:00.855Z,8.90
2024-02-03T11:33:30.168Z,8.90
2024-02-03T11:36:00.468Z,8.90
2024-02-03T11:38:27.722Z,8.90
2024-02-03T11:41:00.840Z,8.90
2024-02-03T11:43:29.601Z,8.90
2024-02-03T11:46:05.782Z,8.90
2024-02-03T11:48:33.797Z,8.90
2024-02-03T11:51:01.035Z,8.90
2024-02-03T11:53:28.717Z,8.90
2024-02-03T11:55:57.873Z,8.90
2024-02-03T11:58:25.325Z,8.90
2024-02-03T12:00:55.501Z,9.00
2024-02-03T12:03:22.948Z,8.90
2024-02-03T12:05:50.778Z,9.00
2024-02-03T12:08:18.277Z,9.00
2024-02-03T12:10:45.691Z,9.00
2024-02-03T12:13:12.936Z,9.00
2024-02-03T12:15:40.145Z,9.00
2024-02-03T12:18:08.394Z,9.00
2024-02-03T12:20:35.541Z,9.00
2024-02-03T12:23:02.910Z,9.10
2024-02-03T12:25:30.166Z,9.10
2024-02-03T12:27:58.313Z,9.00
2024-02-03T12:30:25.543Z,9.00
2024-02-03T12:32:52.852Z,9.00
2024-02-03T12:35:20.264Z,9.10
2024-02-03T12:37:47.597Z,9.00
2024-02-03T12:40:14.874Z,9.10
2024-02-03T12:42:42.182Z,9.10
2024-02-03T12:45:09.669Z,9.20
2024-02-03T12:47:37.071Z,9.10
2024-02-03T12:50:04.881Z,9.10
2024-02-03T12:52:32.541Z,9.20
2024-02-03T12:54:59.918Z,9.20
2024-02-03T12:57:27.234Z,9.20
2024-02-03T12:59:54.422Z,9.30
2024-02-03T13:02:21.635Z,9.40
2024-02-03T13:04:48.828Z,9.40
2024-02-03T13:07:16.805Z,9.40
2024-02-03T13:09:44.816Z,9.40
2024-02-03T13:12:12.737Z,9.40
2024-02-03T13:14:39.871Z,9.30
2024-02-03T13:17:07.142Z,9.30
2024-02-03T13:19:34.404Z,9.30
2024-02-03T13:22:01.832Z,9.40
2024-02-03T13:24:31.019Z,9.40
2024-02-03T13:27:00.734Z,9.40
2024-02-03T13:29:28.086Z,9.40
2024-02-03T13:31:55.389Z,9.40
2024-02-03T13:34:23.967Z,9.40
2024-02-03T13:36:52.486Z,9.40
2024-02-03T13:39:19.958Z,9.40
2024-02-03T13:41:47.317Z,9.40
2024-02-03T13:44:14.566Z,9.40
2024-02-03T13:46:41.790Z,9.40
2024-02-03T13:49:09.045Z,9.40
2024-02-03T13:51:36.411Z,9.40
2024-02-03T13:54:03.945Z,9.40
2024-02-03T13:56:31.251Z,9.40
2024-02-03T13:58:58.538Z,9.40
2024-02-03T14:01:28.879Z,9.40
2024-02-03T14:03:57.287Z,9.40
2024-02-03T14:06:24.666Z,9.40
2024-02-03T14:08:52.100Z,9.40
2024-02-03T14:11:19.488Z,9.40
2024-02-03T14:13:46.740Z,9.50
2024-02-03T14:16:16.353Z,9.40
2024-02-03T14:18:44.160Z,9.40
2024-02-03T14:21:11.602Z,9.40
2024-02-03T14:23:38.881Z,9.40
2024-02-03T14:26:07.463Z,9.40
2024-02-03T14:28:35.120Z,9.30
2024-02-03T14:31:02.429Z,9.30
2024-02-03T14:33:30.130Z,9.30
2024-02-03T14:35:57.634Z,9.40
2024-02-03T14:38:25.290Z,9.40
2024-02-03T14:40:52.624Z,9.40
2024-02-03T14:43:19.822Z,9.40
2024-02-03T14:45:47.204Z,9.50
2024-02-03T14:48:14.447Z,9.50
2024-02-03T14:50:41.827Z,9.50
2024-02-03T14:53:09.326Z,9.50
2024-02-03T14:55:36.707Z,9.40
2024-02-03T14:58:04.042Z,9.40
2024-02-03T15:00:31.673Z,9.30
2024-02-03T15:02:58.875Z,9.30
2024-02-03T15:05:26.213Z,9.30
2024-02-03T15:07:53.618Z,9.20
2024-02-03T15:10:21.088Z,9.20
2024-02-03T15:12:48.399Z,9.20
2024-02-03T15:15:15.774Z,9.20
2024-02-03T15:17:43.100Z,9.20
2024-02-03T15:20:11.044Z,9.30
2024-02-03T15:22:38.469Z,9.30
2024-02-03T15:25:06.142Z,9.30
2024-02-03T15:27:33.573Z,9.20
2024-02-03T15:30:00.881Z,9.20
2024-02-03T15:32:28.237Z,9.20
2024-02-03T15:34:55.614Z,9.20
2024-02-03T15:37:23.126Z,9.20
2024-02-03T15:39:52.115Z,9.20
2024-02-03T15:42:20.960Z,9.10
2024-02-03T15:44:48.302Z,9.20
2024-02-03T15:47:16.231Z,9.20
2024-02-03T15:49:43.783Z,9.20
2024-02-03T15:52:11.439Z,9.20
2024-02-03T15:54:39.581Z,9.20
2024-02-03T15:57:08.518Z,9.20
2024-02-03T15:59:36.571Z,9.20
2024-02-03T16:02:04.840Z,9.20
2024-02-03T16:04:32.195Z,9.20
2024-02-03T16:06:59.769Z,9.10
2024-02-03T16:09:27.073Z,9.10
2024-02-03T16:11:54.459Z,9.10
2024-02-03T16:14:21.765Z,9.10
2024-02-03T16:16:49.150Z,9.10
2024-02-03T16:19:16.461Z,9.10
2024-02-03T16:21:43.916Z,9.00
2024-02-03T16:24:11.468Z,9.00
2024-02-03T16:26:38.861Z,9.00
2024-02-03T16:29:06.101Z,9.00
2024-02-03T16:31:33.386Z,9.00
2024-02-03T16:34:00.703Z,9.00
2024-02-03T16:36:28.086Z,9.00
2024-02-03T16:38:55.257Z,9.00
2024-02-03T16:41:23.428Z,9.00
2024-02-03T16:43:50.623Z,9.10
2024-02-03T16:46:17.944Z,9.10
2024-02-03T16:48:45.161Z,9.00
2024-02-03T16:51:12.532Z,9.00
2024-02-03T16:53:39.686Z,9.00
2024-02-03T16:56:07.221Z,9.00
2024-02-03T16:58:35.838Z,8.90
2024-02-03T17:01:03.327Z,8.80
2024-02-03T17:03:30.620Z,8.80
2024-02-03T17:05:58.131Z,8.80
2024-02-03T17:08:25.382Z,8.80
2024-02-03T17:10:54.224Z,8.80
2024-02-03T17:13:23.360Z,8.80
2024-02-03T17:15:51.522Z,8.80
2024-02-03T17:18:19.002Z,8.80
2024-02-03T17:20:46.433Z,8.70
2024-02-03T17:23:13.671Z,8.70
2024-02-03T17:25:40.962Z,8.60
2024-02-03T17:28:08.222Z,8.60
2024-02-03T17:30:36.439Z,8.60
2024-02-03T17:33:03.781Z,8.60
2024-02-03T17:35:31.059Z,8.70
2024-02-03T17:37:58.171Z,8.70
2024-02-03T17:40:25.650Z,8.70
2024-02-03T17:42:52.879Z,8.70
2024-02-03T17:45:23.541Z,8.60
2024-02-03T17:47:52.205Z,8.60
2024-02-03T17:50:21.235Z,8.60
2024-02-03T17:52:48.580Z,8.60
2024-02-03T17:55:16.183Z,8.60
2024-02-03T17:57:44.380Z,8.60
2024-02-03T18:00:12.982Z,8.60
2024-02-03T18:02:40.443Z,8.60
2024-02-03T18:05:09.171Z,8.60
2024-02-03T18:07:36.441Z,8.60
2024-02-03T18:10:04.135Z,8.60
2024-02-03T18:12:31.498Z,8.70
2024-02-03T18:14:59.417Z,8.70
2024-02-03T18:17:26.570Z,8.70
2024-02-03T18:19:54.627Z,8.60
2024-02-03T18:22:22.142Z,8.60
2024-02-03T18:24:49.459Z,8.60
2024-02-03T18:27:16.809Z,8.60
2024-02-03T18:29:43.996Z,8.50
2024-02-03T18:32:11.192Z,8.50
2024-02-03T18:34:38.646Z,8.50
2024-02-03T18:37:06.080Z,8.50
2024-02-03T18:39:33.341Z,8.50
2024-02-03T18:42:00.756Z,8.50
2024-02-03T18:44:27.939Z,8.50
2024-02-03T18:46:55.534Z,8.50
2024-02-03T18:49:22.846Z,8.50
2024-02-03T18:51:50.203Z,8.50
2024-02-03T18:54:17.486Z,8.50
2024-02-03T18:56:44.735Z,8.50
2024-02-03T18:59:12.021Z,8.50
2024-02-03T19:01:39.275Z,8.50
2024-02-03T19:04:06.567Z,8.50
2024-02-03T19:06:34.132Z,8.40
2024-02-03T19:09:01.374Z,8.40
2024-02-03T19:11:28.695Z,8.40
2024-02-03T19:13:55.941Z,8.40
2024-02-03T19:16:23.344Z,8.40
2024-02-03T19:18:50.671Z,8.40
2024-02-03T19:21:17.974Z,8.40
2024-02-03T19:23:45.267Z,8.40
2024-02-03T19:26:14.927Z,8.40
2024-02-03T19:28:42.054Z,8.40
2024-02-03T19:31:11.246Z,8.40
2024-02-03T19:33:38.432Z,8.40
2024-02-03T19:36:06.434Z,8.40
2024-02-03T19:38:33.512Z,8.40
2024-02-03T19:41:00.793Z,8.40
2024-02-03T19:43:28.015Z,8.30
2024-02-03T19:45:55.569Z,8.30
2024-02-03T19:48:22.855Z,8.30
2024-02-03T19:50:50.575Z,8.30
2024-02-03T19:53:17.877Z,8.30
2024-02-03T19:55:45.138Z,8.30
2024-02-03T19:58:12.450Z,8.30
2024-02-03T20:00:39.848Z,8.20
2024-02-03T20:03:07.754Z,8.20
2024-02-03T20:05:35.270Z,8.20
2024-02-03T20:08:02.706Z,8.10
2024-02-03T20:10:30.610Z,8.10
2024-02-03T20:12:58.911Z,8.10
2024-02-03T20:15:26.365Z,8.20
2024-02-03T20:17:54.115Z,8.10
2024-02-03T20:20:21.710Z,8.10
2024-02-03T20:22:50.581Z,8.20
2024-02-03T20:25:18.217Z,8.20
2024-02-03T20:27:45.551Z,8.20
2024-02-03T20:30:13.109Z,8.10
2024-02-03T20:32:40.351Z,8.10
2024-02-03T20:35:07.965Z,8.10
2024-02-03T20:37:35.342Z,8.10
2024-02-03T20:40:04.548Z,8.10
2024-02-03T20:42:32.059Z,8.10
2024-02-03T20:44:59.281Z,8.00
2024-02-03T20:47:26.498Z,8.00
2024-02-03T20:49:53.946Z,8.00
2024-02-03T20:52:21.184Z,8.00
2024-02-03T20:54:48.548Z,8.00
2024-02-03T20:57:16.322Z,8.00
2024-02-03T20:59:43.730Z,8.00
2024-02-03T21:02:11.182Z,8.10
2024-02-03T21:04:38.929Z,8.10
2024-02-03T21:07:09.263Z,8.10
2024-02-03T21:09:36.823Z,8.10
2024-02-03T21:12:04.320Z,8.10
2024-02-03T21:14:31.552Z,8.10
2024-02-03T21:16:59.308Z,8.00
2024-02-03T21:19:26.906Z,8.00
2024-02-03T21:21:54.192Z,8.00
2024-02-03T21:24:21.587Z,8.10
2024-02-03T21:26:50.372Z,8.10
2024-02-03T21:29:17.518Z,8.00
2024-02-03T21:31:44.865Z,8.10
2024-02-03T21:34:12.205Z,8.10
2024-02-03T21:36:39.763Z,8.10
2024-02-03T21:39:10.878Z,8.00
2024-02-03T21:41:40.200Z,8.00
2024-02-03T21:44:07.710Z,7.90
2024-02-03T21:46:34.969Z,7.90
2024-02-03T21:49:02.922Z,7.90
2024-02-03T21:51:30.352Z,7.90
2024-02-03T21:53:57.464Z,7.80
2024-02-03T21:56:24.806Z,7.90
2024-02-03T21:58:51.954Z,7.90
2024-02-03T22:01:19.558Z,7.90
2024-02-03T22:03:47.212Z,7.90
2024-02-03T22:06:14.544Z,7.90
2024-02-03T22:08:41.755Z,7.90
2024-02-03T22:11:09.115Z,7.90
2024-02-03T22:13:37.837Z,8.00
2024-02-03T22:16:05.542Z,7.90
2024-02-03T22:18:32.816Z,8.00
2024-02-03T22:21:00.142Z,7.90
2024-02-03T22:23:27.291Z,7.90
2024-02-03T22:25:54.687Z,7.90
2024-02-03T22:28:21.916Z,7.90
2024-02-03T22:30:49.238Z,7.90
2024-02-03T22:33:16.681Z,7.90
2024-02-03T22:35:43.977Z,8.00
2024-02-03T22:38:11.078Z,8.00
2024-02-03T22:40:38.628Z,8.00
2024-02-03T22:43:06.045Z,8.00
2024-02-03T22:45:33.538Z,8.00
2024-02-03T22:48:01.786Z,8.00
2024-02-03T22:50:29.226Z,8.10
2024-02-03T22:52:56.339Z,8.10
2024-02-03T22:55:24.204Z,8.10
2024-02-03T22:57:51.319Z,8.10
2024-02-03T23:00:20.412Z,8.10
2024-02-03T23:02:47.694Z,8.10
2024-02-03T23:05:18.919Z,8.10
2024-02-03T23:07:46.182Z,8.20
2024-02-03T23:10:13.476Z,8.20
2024-02-03T23:12:42.505Z,8.20
2024-02-03T23:15:10.631Z,8.20
2024-02-03T23:17:39.611Z,8.20
2024-02-03T23:20:11.033Z,8.20
2024-02-03T23:22:38.997Z,8.20
2024-02-03T23:25:07.602Z,8.20
2024-02-03T23:27:36.195Z,8.20
2024-02-03T23:30:05.417Z,8.20
2024-02-03T23:32:34.103Z,8.30
2024-02-03T23:35:01.360Z,8.30
2024-02-03T23:37:28.652Z,8.30
2024-02-03T23:39:55.944Z,8.20
2024-02-03T23:42:23.253Z,8.10
2024-02-03T23:44:50.471Z,8.10
2024-02-03T23:47:17.822Z,8.10
2024-02-03T23:49:45.271Z,8.10
2024-02-03T23:52:12.433Z,8.20
2024-02-03T23:54:39.789Z,8.20
2024-02-03T23:57:07.312Z,8.10
2024-02-03T23:59:34.398Z,8.10
